Time;durP1;ratioP1;P1;durP2;ratioP2;P2;SDS_P1;SDS_P2;PMS_P1;PMS_P2;Temp;Humidity;BMP_temperature;BMP_pressure;BME280_temperature;BME280_humidity;BME280_pressure;Samples;Min_cycle;Max_cycle;Signal;HPM_P1;HPM_P2
2023/12/19 00:01:46;;;;;;;;;;;2.30;87.50;;;;;;5076763;28;20016;-62
2023/12/19 00:04:19;;;;;;;;;;;2.20;87.50;;;;;;5085414;28;19924;-62
2023/12/19 00:06:53;;;;;;;;;;;2.20;87.60;;;;;;5072775;28;19931;-60
2023/12/19 00:09:27;;;;;;;;;;;2.20;87.50;;;;;;5078778;28;19974;-61
2023/12/19 00:12:00;;;;;;;;;;;2.20;87.80;;;;;;5084634;28;19930;-61
2023/12/19 00:14:27;;;;;;;;;;;2.30;87.70;;;;;;5086541;28;19932;-62
2023/12/19 00:17:00;;;;;;;;;;;2.30;87.50;;;;;;5083958;28;20397;-62
2023/12/19 00:19:41;;;;;;;;;;;2.20;87.80;;;;;;5085976;28;20294;-61
2023/12/19 00:22:15;;;;;;;;;;;2.20;87.70;;;;;;5082357;28;19932;-62
2023/12/19 00:24:49;;;;;;;;;;;2.10;87.90;;;;;;5078802;28;20377;-62
2023/12/19 00:27:22;;;;;;;;;;;2.00;88.00;;;;;;5082157;28;20054;-62
2023/12/19 00:29:49;;;;;;;;;;;2.00;88.10;;;;;;5085477;28;19932;-62
2023/12/19 00:32:22;;;;;;;;;;;2.10;88.10;;;;;;5088416;28;20328;-61
2023/12/19 00:34:55;;;;;;;;;;;2.20;87.70;;;;;;5083589;27;19924;-58
2023/12/19 00:37:29;;;;;;;;;;;2.20;87.80;;;;;;5081368;28;19986;-60
2023/12/19 00:40:04;;;;;;;;;;;2.20;87.60;;;;;;5083547;28;20325;-58
2023/12/19 00:42:37;;;;;;;;;;;2.20;87.70;;;;;;5083066;28;19924;-59
2023/12/19 00:45:11;;;;;;;;;;;2.20;87.70;;;;;;5083137;28;19928;-60
2023/12/19 00:47:44;;;;;;;;;;;2.20;87.60;;;;;;5088320;28;20359;-59
2023/12/19 00:50:18;;;;;;;;;;;2.20;87.50;;;;;;5082391;28;20586;-60
2023/12/19 00:52:52;;;;;;;;;;;2.20;87.50;;;;;;5083046;28;20887;-61
2023/12/19 00:55:26;;;;;;;;;;;2.30;87.50;;;;;;5088038;28;20012;-61
2023/12/19 00:57:53;;;;;;;;;;;2.30;87.40;;;;;;5083138;28;19977;-59
2023/12/19 01:00:26;;;;;;;;;;;2.30;87.40;;;;;;5082989;27;19982;-63
2023/12/19 01:02:59;;;;;;;;;;;2.20;87.40;;;;;;5080717;28;20023;-59
2023/12/19 01:05:32;;;;;;;;;;;2.20;87.40;;;;;;5085619;28;19932;-59
2023/12/19 01:08:06;;;;;;;;;;;2.30;87.40;;;;;;5083469;28;19932;-57
2023/12/19 01:10:40;;;;;;;;;;;2.20;87.40;;;;;;5082689;28;19955;-59
2023/12/19 01:13:13;;;;;;;;;;;2.20;87.50;;;;;;5085183;28;19981;-60
2023/12/19 01:15:46;;;;;;;;;;;2.20;87.50;;;;;;5085877;28;20012;-60
2023/12/19 01:18:19;;;;;;;;;;;2.10;87.60;;;;;;5086257;28;19935;-60
2023/12/19 01:20:52;;;;;;;;;;;2.20;87.70;;;;;;5088807;28;20370;-58
2023/12/19 01:23:26;;;;;;;;;;;2.10;87.70;;;;;;5084304;28;19931;-59
2023/12/19 01:26:00;;;;;;;;;;;2.20;87.60;;;;;;5089297;28;19928;-59
2023/12/19 01:28:33;;;;;;;;;;;2.20;87.60;;;;;;5083589;27;19931;-61
2023/12/19 01:31:06;;;;;;;;;;;2.20;87.60;;;;;;5090682;28;20410;-59
2023/12/19 01:33:39;;;;;;;;;;;2.10;87.50;;;;;;5085368;28;19924;-59
2023/12/19 01:36:12;;;;;;;;;;;2.10;87.50;;;;;;5088909;28;20279;-60
2023/12/19 01:38:46;;;;;;;;;;;2.10;87.60;;;;;;5086003;28;19924;-59
2023/12/19 01:41:21;;;;;;;;;;;2.20;87.50;;;;;;5086327;28;20375;-73
2023/12/19 01:43:57;;;;;;;;;;;2.20;87.50;;;;;;5087822;27;19947;-72
2023/12/19 01:46:30;;;;;;;;;;;2.10;87.30;;;;;;5091596;28;19930;-72
2023/12/19 01:49:03;;;;;;;;;;;2.10;87.40;;;;;;5086332;28;19924;-72
2023/12/19 01:51:36;;;;;;;;;;;2.10;87.30;;;;;;5087364;28;20284;-72
2023/12/19 01:54:11;;;;;;;;;;;2.00;87.40;;;;;;5086495;28;19928;-72
2023/12/19 01:56:45;;;;;;;;;;;2.10;87.30;;;;;;5087981;27;19932;-72
2023/12/19 01:59:18;;;;;;;;;;;2.10;87.10;;;;;;5085125;28;19973;-71
2023/12/19 02:01:51;;;;;;;;;;;2.10;87.00;;;;;;5086026;28;19924;-70
2023/12/19 02:04:24;;;;;;;;;;;2.10;86.90;;;;;;5089363;28;19924;-71
2023/12/19 02:06:57;;;;;;;;;;;2.00;86.90;;;;;;5089766;28;19938;-72
2023/12/19 02:09:32;;;;;;;;;;;2.00;86.80;;;;;;5081235;28;19928;-72
2023/12/19 02:12:05;;;;;;;;;;;2.00;86.80;;;;;;5088653;28;20018;-74
2023/12/19 02:14:39;;;;;;;;;;;2.00;86.80;;;;;;5087693;28;19935;-71
2023/12/19 02:17:12;;;;;;;;;;;1.90;86.70;;;;;;5085040;28;19938;-72
2023/12/19 02:19:45;;;;;;;;;;;2.00;86.70;;;;;;5083582;28;19935;-72
2023/12/19 02:22:18;;;;;;;;;;;1.90;86.80;;;;;;5086762;28;19928;-72
2023/12/19 02:24:52;;;;;;;;;;;1.90;86.80;;;;;;5083260;28;19932;-70
2023/12/19 02:27:26;;;;;;;;;;;1.90;86.70;;;;;;5088085;28;19932;-72
2023/12/19 02:30:00;;;;;;;;;;;1.80;86.90;;;;;;5086350;28;19927;-72
2023/12/19 02:32:34;;;;;;;;;;;1.80;86.90;;;;;;5084544;28;19928;-73
2023/12/19 02:35:07;;;;;;;;;;;1.90;86.90;;;;;;5088673;28;19999;-71
2023/12/19 02:37:41;;;;;;;;;;;1.90;86.90;;;;;;5084720;28;19968;-72
2023/12/19 02:40:15;;;;;;;;;;;1.80;86.90;;;;;;5088040;28;19924;-72
2023/12/19 02:42:49;;;;;;;;;;;1.90;87.10;;;;;;5084723;28;19935;-72
2023/12/19 02:45:22;;;;;;;;;;;1.90;87.10;;;;;;5086485;28;19932;-71
2023/12/19 02:47:55;;;;;;;;;;;1.90;87.20;;;;;;5083895;28;19932;-71
2023/12/19 02:50:28;;;;;;;;;;;1.90;87.20;;;;;;5087859;27;19969;-71
2023/12/19 02:53:01;;;;;;;;;;;1.80;87.10;;;;;;5086016;28;19931;-72
2023/12/19 02:55:35;;;;;;;;;;;1.80;87.30;;;;;;5086590;28;19928;-72
2023/12/19 02:58:09;;;;;;;;;;;1.80;87.40;;;;;;5082771;28;19981;-73
2023/12/19 03:00:42;;;;;;;;;;;1.80;87.40;;;;;;5081638;28;19970;-70
2023/12/19 03:03:15;;;;;;;;;;;1.80;87.30;;;;;;5086334;28;19950;-72
2023/12/19 03:05:48;;;;;;;;;;;1.80;87.30;;;;;;5083666;28;20382;-73
2023/12/19 03:08:21;;;;;;;;;;;1.80;87.50;;;;;;5086857;28;19932;-73
2023/12/19 03:10:56;;;;;;;;;;;1.80;87.50;;;;;;5083738;28;19943;-72
2023/12/19 03:13:29;;;;;;;;;;;1.80;87.40;;;;;;5088176;28;19924;-71
2023/12/19 03:16:02;;;;;;;;;;;1.80;87.60;;;;;;5082408;28;19928;-73
2023/12/19 03:18:35;;;;;;;;;;;1.90;87.60;;;;;;5085389;28;19978;-72
2023/12/19 03:21:08;;;;;;;;;;;1.90;87.50;;;;;;5083182;28;19946;-72
2023/12/19 03:23:42;;;;;;;;;;;2.00;87.50;;;;;;5086897;28;20000;-72
2023/12/19 03:26:16;;;;;;;;;;;2.00;87.60;;;;;;5085049;28;19928;-72
2023/12/19 03:28:49;;;;;;;;;;;2.00;87.50;;;;;;5086677;28;20011;-71
2023/12/19 03:31:22;;;;;;;;;;;1.90;87.70;;;;;;5085169;28;19940;-71
2023/12/19 03:33:55;;;;;;;;;;;1.90;87.80;;;;;;5085288;27;19932;-72
2023/12/19 03:36:28;;;;;;;;;;;1.90;87.80;;;;;;5089323;28;19924;-73
2023/12/19 03:39:01;;;;;;;;;;;1.90;87.90;;;;;;5084103;28;20004;-73
2023/12/19 03:41:35;;;;;;;;;;;1.90;88.00;;;;;;5086629;28;20062;-72
2023/12/19 03:44:09;;;;;;;;;;;2.00;88.00;;;;;;5077910;28;19932;-73
2023/12/19 03:46:42;;;;;;;;;;;2.00;88.00;;;;;;5085287;28;19932;-72
2023/12/19 03:49:15;;;;;;;;;;;2.00;88.00;;;;;;5087886;28;20302;-71
2023/12/19 03:51:49;;;;;;;;;;;2.00;88.00;;;;;;5087802;28;20428;-71
2023/12/19 03:54:24;;;;;;;;;;;2.00;88.00;;;;;;5089292;28;20431;-73
2023/12/19 03:56:58;;;;;;;;;;;1.90;88.10;;;;;;5087564;28;19939;-72
2023/12/19 03:59:32;;;;;;;;;;;1.90;88.40;;;;;;5082902;28;20035;-72
2023/12/19 04:02:05;;;;;;;;;;;1.90;88.40;;;;;;5077673;28;19930;-61
2023/12/19 04:04:38;;;;;;;;;;;1.90;88.30;;;;;;5087944;28;19930;-63
2023/12/19 04:07:11;;;;;;;;;;;1.90;88.40;;;;;;5083819;28;19928;-63
2023/12/19 04:09:44;;;;;;;;;;;1.90;88.40;;;;;;5087103;28;19931;-63
2023/12/19 04:12:18;;;;;;;;;;;1.90;88.40;;;;;;5087161;28;20469;-62
2023/12/19 04:14:52;;;;;;;;;;;2.00;88.40;;;;;;5086889;28;19928;-62
2023/12/19 04:17:25;;;;;;;;;;;2.00;88.30;;;;;;5082911;28;19931;-62
2023/12/19 04:19:58;;;;;;;;;;;2.00;88.40;;;;;;5088870;28;20458;-62
2023/12/19 04:22:31;;;;;;;;;;;2.00;88.30;;;;;;5086431;28;20322;-62
2023/12/19 04:25:04;;;;;;;;;;;1.90;88.40;;;;;;5082921;28;19924;-63
2023/12/19 04:27:40;;;;;;;;;;;1.90;88.50;;;;;;5080077;28;19924;-63
2023/12/19 04:30:13;;;;;;;;;;;1.90;88.70;;;;;;5084081;28;19928;-63
2023/12/19 04:32:46;;;;;;;;;;;2.00;88.50;;;;;;5084049;28;19924;-62
2023/12/19 04:35:19;;;;;;;;;;;2.00;88.40;;;;;;5087732;28;20003;-61
2023/12/19 04:37:52;;;;;;;;;;;2.00;88.40;;;;;;5081097;28;20298;-62
2023/12/19 04:40:25;;;;;;;;;;;2.00;88.50;;;;;;5088297;28;19932;-62
2023/12/19 04:42:59;;;;;;;;;;;1.90;88.50;;;;;;5087790;28;20394;-63
2023/12/19 04:45:33;;;;;;;;;;;1.90;88.50;;;;;;5088496;28;20779;-62
2023/12/19 04:48:06;;;;;;;;;;;2.00;88.80;;;;;;5088670;28;19928;-62
2023/12/19 04:50:40;;;;;;;;;;;2.00;88.40;;;;;;5084764;28;20392;-62
2023/12/19 04:53:13;;;;;;;;;;;2.00;88.60;;;;;;5087474;28;19943;-62
2023/12/19 04:55:46;;;;;;;;;;;2.00;88.30;;;;;;5086500;28;19928;-62
2023/12/19 04:58:20;;;;;;;;;;;2.10;88.30;;;;;;5085722;27;19928;-61
2023/12/19 05:00:54;;;;;;;;;;;2.10;88.40;;;;;;5085526;28;20506;-62
2023/12/19 05:03:27;;;;;;;;;;;2.20;88.20;;;;;;5082545;28;19924;-64
2023/12/19 05:06:00;;;;;;;;;;;2.10;88.20;;;;;;5084812;28;20003;-63
2023/12/19 05:08:33;;;;;;;;;;;2.10;88.40;;;;;;5085086;28;19942;-63
2023/12/19 05:11:06;;;;;;;;;;;2.00;88.70;;;;;;5087982;28;20367;-63
2023/12/19 05:13:41;;;;;;;;;;;2.00;88.70;;;;;;5086311;28;20449;-61
2023/12/19 05:16:14;;;;;;;;;;;2.00;88.60;;;;;;5089224;28;19931;-63
2023/12/19 05:19:00;;;;;;;;;;;2.00;88.70;;;;;;5085474;28;19924;-62
2023/12/19 05:21:41;;;;;;;;;;;2.00;88.60;;;;;;5088594;28;20011;-62
2023/12/19 05:24:14;;;;;;;;;;;2.00;88.80;;;;;;5091342;28;20371;-62
2023/12/19 05:26:48;;;;;;;;;;;2.00;88.80;;;;;;5087457;28;19934;-62
2023/12/19 05:29:22;;;;;;;;;;;2.00;88.80;;;;;;5089852;28;19933;-62
2023/12/19 05:31:48;;;;;;;;;;;2.00;88.80;;;;;;5090312;28;19932;-63
2023/12/19 05:34:21;;;;;;;;;;;1.90;88.90;;;;;;5087538;28;20335;-63
2023/12/19 05:36:54;;;;;;;;;;;2.00;89.10;;;;;;5086851;28;19924;-62
2023/12/19 05:39:27;;;;;;;;;;;1.90;88.90;;;;;;5088320;28;19964;-62
2023/12/19 05:42:01;;;;;;;;;;;1.90;89.10;;;;;;5089073;28;20446;-63
2023/12/19 05:44:36;;;;;;;;;;;2.00;89.00;;;;;;5090300;28;19928;-61
2023/12/19 05:47:09;;;;;;;;;;;2.00;88.90;;;;;;5088804;28;19924;-62
2023/12/19 05:49:42;;;;;;;;;;;2.00;89.00;;;;;;5090591;27;19924;-62
2023/12/19 06:21:04;;;;;;;;;;;2.10;89.00;;;;;;5089168;28;19923;-59
2023/12/19 06:23:38;;;;;;;;;;;2.10;89.20;;;;;;5088937;28;19932;-60
2023/12/19 06:26:11;;;;;;;;;;;2.10;89.10;;;;;;5089385;27;19931;-58
2023/12/19 06:28:44;;;;;;;;;;;2.10;89.10;;;;;;5063160;28;19932;-59
2023/12/19 06:31:19;;;;;;;;;;;2.00;89.20;;;;;;5087359;28;20309;-61
2023/12/19 06:33:52;;;;;;;;;;;2.20;89.30;;;;;;5090196;28;19928;-59
2023/12/19 06:36:31;;;;;;;;;;;2.20;89.20;;;;;;5088638;28;19930;-59
2023/12/19 06:39:06;;;;;;;;;;;2.20;89.10;;;;;;5085536;28;19932;-58
2023/12/19 06:41:39;;;;;;;;;;;2.20;89.10;;;;;;5089980;27;19934;-59
2023/12/19 06:44:13;;;;;;;;;;;2.20;89.10;;;;;;5089533;28;19924;-58
2023/12/19 06:46:49;;;;;;;;;;;2.20;89.00;;;;;;5082857;28;19929;-60
2023/12/19 06:49:23;;;;;;;;;;;2.20;89.20;;;;;;5089799;28;19977;-58
2023/12/19 06:51:58;;;;;;;;;;;2.20;89.10;;;;;;5089685;28;19931;-59
2023/12/19 06:54:32;;;;;;;;;;;2.20;89.10;;;;;;5089813;27;19932;-60
2023/12/19 06:57:05;;;;;;;;;;;2.20;89.10;;;;;;5086643;28;20010;-59
2023/12/19 06:59:40;;;;;;;;;;;2.20;89.20;;;;;;5089888;28;20302;-59
2023/12/19 07:02:13;;;;;;;;;;;2.10;89.30;;;;;;5088002;28;19947;-59
2023/12/19 07:04:46;;;;;;;;;;;2.20;89.20;;;;;;5087785;28;20479;-59
2023/12/19 07:07:21;;;;;;;;;;;2.20;89.20;;;;;;5088252;28;19989;-59
2023/12/19 07:09:54;;;;;;;;;;;2.20;89.10;;;;;;5087960;28;20014;-59
2023/12/19 07:12:27;;;;;;;;;;;2.20;89.20;;;;;;5088218;28;19925;-58
2023/12/19 07:15:04;;;;;;;;;;;2.20;89.20;;;;;;5085423;28;19993;-59
2023/12/19 07:17:37;;;;;;;;;;;2.20;89.10;;;;;;5088718;28;19934;-58
2023/12/19 07:20:11;;;;;;;;;;;2.20;89.20;;;;;;5088623;28;19956;-59
2023/12/19 07:22:46;;;;;;;;;;;2.20;89.30;;;;;;5084881;28;20012;-59
2023/12/19 07:25:20;;;;;;;;;;;2.20;89.40;;;;;;5085791;28;19963;-59
2023/12/19 07:27:53;;;;;;;;;;;2.20;89.50;;;;;;5085605;28;19973;-59
2023/12/19 07:30:26;;;;;;;;;;;2.20;89.60;;;;;;5087514;28;19928;-72
2023/12/19 07:33:00;;;;;;;;;;;2.20;89.50;;;;;;5086725;28;20294;-73
2023/12/19 07:35:33;;;;;;;;;;;2.20;89.50;;;;;;5087854;28;19928;-71
2023/12/19 07:38:08;;;;;;;;;;;2.20;89.60;;;;;;5087705;28;19935;-73
2023/12/19 07:40:41;;;;;;;;;;;2.20;89.60;;;;;;5086626;28;19928;-70
2023/12/19 07:43:18;;;;;;;;;;;2.20;89.70;;;;;;5086869;28;19935;-73
2023/12/19 07:45:51;;;;;;;;;;;2.20;89.70;;;;;;5087307;28;20340;-74
2023/12/19 07:48:24;;;;;;;;;;;2.20;89.70;;;;;;5087563;28;19928;-72
2023/12/19 07:50:57;;;;;;;;;;;2.20;89.80;;;;;;5087339;28;19959;-72
2023/12/19 07:53:33;;;;;;;;;;;2.20;89.80;;;;;;5086617;28;19939;-72
2023/12/19 07:56:07;;;;;;;;;;;2.20;89.90;;;;;;5087729;28;19927;-72
2023/12/19 07:58:40;;;;;;;;;;;2.20;89.90;;;;;;5088766;28;19924;-73
2023/12/19 08:01:14;;;;;;;;;;;2.20;89.90;;;;;;5086776;28;19981;-72
2023/12/19 08:03:47;;;;;;;;;;;2.30;89.90;;;;;;5087172;28;19928;-73
2023/12/19 08:06:20;;;;;;;;;;;2.30;89.80;;;;;;5088299;28;19958;-73
2023/12/19 08:08:55;;;;;;;;;;;2.20;90.00;;;;;;5086086;28;19934;-73
2023/12/19 08:11:21;;;;;;;;;;;2.20;90.10;;;;;;5087492;28;19947;-72
2023/12/19 08:13:54;;;;;;;;;;;2.20;90.10;;;;;;5089357;28;19928;-73
2023/12/19 08:16:28;;;;;;;;;;;2.20;90.10;;;;;;5092332;28;19931;-72
2023/12/19 08:19:01;;;;;;;;;;;2.20;90.10;;;;;;5090224;28;19932;-73
2023/12/19 08:21:34;;;;;;;;;;;2.30;90.20;;;;;;5092999;28;20369;-73
2023/12/19 08:24:09;;;;;;;;;;;2.20;90.10;;;;;;5091944;28;20268;-72
2023/12/19 08:26:46;;;;;;;;;;;2.30;90.20;;;;;;5091848;28;19931;-72
2023/12/19 08:29:19;;;;;;;;;;;2.30;90.30;;;;;;5092056;28;19932;-72
2023/12/19 08:31:52;;;;;;;;;;;2.30;90.20;;;;;;5089922;28;20295;-73
2023/12/19 08:34:25;;;;;;;;;;;2.40;90.10;;;;;;5093506;28;19993;-72
2023/12/19 08:36:58;;;;;;;;;;;2.40;90.00;;;;;;5090621;28;19924;-73
2023/12/19 08:39:33;;;;;;;;;;;2.40;90.10;;;;;;5093090;28;19936;-72
2023/12/19 08:42:06;;;;;;;;;;;2.40;90.10;;;;;;5092852;28;19946;-62
2023/12/19 08:44:40;;;;;;;;;;;2.40;90.10;;;;;;5092415;28;20011;-61
2023/12/19 08:47:14;;;;;;;;;;;2.40;90.20;;;;;;5092379;28;19924;-60
2023/12/19 08:49:47;;;;;;;;;;;2.40;90.30;;;;;;5092106;28;20268;-61
2023/12/19 08:52:21;;;;;;;;;;;2.40;90.20;;;;;;5093312;28;20316;-61
2023/12/19 08:54:55;;;;;;;;;;;2.40;90.30;;;;;;5091070;28;20416;-64
2023/12/19 08:57:29;;;;;;;;;;;2.40;90.40;;;;;;5093196;28;19928;-62
2023/12/19 09:00:03;;;;;;;;;;;2.50;90.30;;;;;;5091464;28;20429;-61
2023/12/19 09:02:36;;;;;;;;;;;2.50;90.30;;;;;;5091551;28;19928;-62
2023/12/19 09:05:10;;;;;;;;;;;2.40;90.40;;;;;;5092511;28;19924;-62
2023/12/19 09:07:44;;;;;;;;;;;2.40;90.50;;;;;;5089753;28;19932;-63
2023/12/19 09:10:18;;;;;;;;;;;2.50;90.50;;;;;;5091343;28;19987;-61
2023/12/19 09:12:51;;;;;;;;;;;2.40;90.50;;;;;;5090665;28;19925;-61
2023/12/19 09:15:24;;;;;;;;;;;2.50;90.50;;;;;;5091117;28;20011;-62
2023/12/19 09:17:57;;;;;;;;;;;2.50;90.50;;;;;;5090968;28;19924;-60
2023/12/19 09:20:30;;;;;;;;;;;2.50;90.50;;;;;;5086764;28;20365;-61
2023/12/19 09:23:03;;;;;;;;;;;2.60;90.50;;;;;;5107555;28;19928;-61
2023/12/19 09:25:38;;;;;;;;;;;2.50;90.60;;;;;;5091838;28;19931;-63
2023/12/19 09:28:11;;;;;;;;;;;2.60;90.60;;;;;;5090264;28;20015;-62
2023/12/19 09:30:45;;;;;;;;;;;2.60;90.60;;;;;;5091608;28;19950;-63
2023/12/19 09:33:18;;;;;;;;;;;2.60;90.60;;;;;;5084678;28;20023;-65
2023/12/19 09:35:51;;;;;;;;;;;2.60;90.60;;;;;;5089771;28;19928;-63
2023/12/19 09:38:24;;;;;;;;;;;2.60;90.50;;;;;;5092431;28;19930;-62
2023/12/19 09:41:18;;;;;;;;;;;2.60;90.50;;;;;;5092351;28;19925;-62
2023/12/19 09:43:51;;;;;;;;;;;2.60;90.40;;;;;;5088545;27;19931;-62
2023/12/19 09:46:25;;;;;;;;;;;2.60;90.50;;;;;;5091218;28;19936;-62
2023/12/19 09:48:58;;;;;;;;;;;2.70;90.40;;;;;;5091229;27;19928;-61
2023/12/19 09:51:32;;;;;;;;;;;2.70;90.40;;;;;;5092396;28;19928;-60
2023/12/19 09:54:05;;;;;;;;;;;2.70;90.30;;;;;;5086229;28;19938;-59
2023/12/19 09:56:40;;;;;;;;;;;2.70;90.30;;;;;;5090884;28;19938;-59
2023/12/19 09:59:15;;;;;;;;;;;2.80;90.20;;;;;;5092083;27;19943;-59
2023/12/19 10:01:48;;;;;;;;;;;2.90;90.20;;;;;;5091050;28;20028;-59
2023/12/19 10:04:21;;;;;;;;;;;2.80;90.10;;;;;;5089789;28;19928;-60
2023/12/19 10:06:55;;;;;;;;;;;2.90;90.10;;;;;;5089229;28;19989;-60
2023/12/19 10:09:35;;;;;;;;;;;2.80;90.10;;;;;;5087634;28;20281;-59
2023/12/19 10:12:11;;;;;;;;;;;2.90;90.10;;;;;;5090524;28;20811;-60
2023/12/19 10:14:46;;;;;;;;;;;2.90;90.10;;;;;;5089666;28;19933;-58
2023/12/19 10:17:19;;;;;;;;;;;2.90;90.10;;;;;;5090711;28;19963;-59
2023/12/19 10:19:52;;;;;;;;;;;2.90;90.00;;;;;;5091485;28;20305;-58
2023/12/19 10:22:25;;;;;;;;;;;2.90;90.00;;;;;;5091395;28;20117;-59
2023/12/19 10:25:00;;;;;;;;;;;2.90;89.90;;;;;;5090416;28;19964;-59
2023/12/19 10:27:35;;;;;;;;;;;2.90;90.00;;;;;;5083509;28;20279;-62
2023/12/19 10:30:18;;;;;;;;;;;2.90;90.00;;;;;;5091633;28;19931;-60
2023/12/19 10:32:56;;;;;;;;;;;2.80;89.90;;;;;;5090775;28;19936;-60
2023/12/19 10:35:36;;;;;;;;;;;2.90;90.00;;;;;;5083573;28;20004;-58
2023/12/19 10:38:09;;;;;;;;;;;2.90;90.00;;;;;;5088913;28;19935;-59
2023/12/19 10:40:42;;;;;;;;;;;2.90;89.90;;;;;;5090391;27;19950;-59
2023/12/19 10:43:17;;;;;;;;;;;2.90;89.90;;;;;;5088908;28;20424;-59
2023/12/19 10:45:50;;;;;;;;;;;2.90;89.80;;;;;;5088773;28;19925;-60
2023/12/19 10:48:23;;;;;;;;;;;2.90;89.90;;;;;;5089322;28;20267;-60
2023/12/19 10:50:57;;;;;;;;;;;2.90;89.90;;;;;;5104002;28;19950;-60
2023/12/19 10:53:30;;;;;;;;;;;3.00;89.80;;;;;;5082938;28;19934;-60
2023/12/19 10:56:04;;;;;;;;;;;3.00;89.70;;;;;;5088316;28;20397;-60
2023/12/19 10:58:42;;;;;;;;;;;3.00;89.70;;;;;;5087882;28;19967;-59
2023/12/19 11:01:17;;;;;;;;;;;3.00;89.70;;;;;;5087614;28;19924;-58
2023/12/19 11:03:54;;;;;;;;;;;3.00;89.70;;;;;;5088763;28;19974;-59
2023/12/19 11:06:28;;;;;;;;;;;3.00;89.70;;;;;;5087963;28;19924;-60
2023/12/19 11:09:05;;;;;;;;;;;3.00;89.70;;;;;;5088112;28;19932;-60
2023/12/19 11:11:39;;;;;;;;;;;3.00;89.70;;;;;;5087946;28;20383;-72
2023/12/19 11:14:07;;;;;;;;;;;3.00;89.70;;;;;;5086389;28;20376;-72
2023/12/19 11:16:42;;;;;;;;;;;2.90;89.70;;;;;;5088854;28;19927;-72
2023/12/19 11:19:18;;;;;;;;;;;3.00;89.60;;;;;;5087638;28;20422;-73
2023/12/19 11:21:55;;;;;;;;;;;3.00;89.60;;;;;;5088690;28;19928;-72
2023/12/19 11:24:44;;;;;;;;;;;3.00;89.50;;;;;;5086733;28;20231;-73
2023/12/19 11:27:26;;;;;;;;;;;3.00;89.60;;;;;;5088554;28;19928;-73
2023/12/19 11:30:01;;;;;;;;;;;3.00;89.50;;;;;;5090221;28;19950;-71
2023/12/19 11:32:37;;;;;;;;;;;3.10;89.40;;;;;;5088009;28;19970;-72
2023/12/19 11:35:11;;;;;;;;;;;3.10;89.50;;;;;;5088275;28;20434;-73
2023/12/19 11:37:45;;;;;;;;;;;3.10;89.50;;;;;;5087932;28;20445;-73
2023/12/19 11:40:18;;;;;;;;;;;3.10;89.50;;;;;;5087695;28;19935;-72
2023/12/19 11:42:51;;;;;;;;;;;3.20;89.30;;;;;;5086812;28;19935;-72
2023/12/19 11:45:40;;;;;;;;;;;3.20;89.30;;;;;;5085424;28;20393;-73
2023/12/19 11:48:32;;;;;;;;;;;3.20;89.20;;;;;;5087391;28;19981;-73
2023/12/19 11:51:08;;;;;;;;;;;3.20;89.10;;;;;;5087265;28;20030;-74
2023/12/19 11:53:42;;;;;;;;;;;3.20;89.20;;;;;;5087578;28;19924;-74
2023/12/19 11:56:15;;;;;;;;;;;3.20;89.00;;;;;;5086866;28;19977;-72
2023/12/19 11:58:51;;;;;;;;;;;3.20;89.10;;;;;;5087525;28;19924;-71
2023/12/19 12:01:25;;;;;;;;;;;3.20;89.10;;;;;;5089179;28;20015;-73
2023/12/19 12:04:04;;;;;;;;;;;3.20;89.10;;;;;;5087336;28;19993;-73
2023/12/19 12:06:41;;;;;;;;;;;3.20;89.00;;;;;;5087954;28;19930;-72
2023/12/19 12:09:18;;;;;;;;;;;3.20;89.10;;;;;;5086632;28;19934;-72
2023/12/19 12:11:52;;;;;;;;;;;3.20;89.10;;;;;;5088454;28;20413;-73
2023/12/19 12:14:28;;;;;;;;;;;3.20;89.10;;;;;;5088010;28;20283;-73
2023/12/19 12:17:01;;;;;;;;;;;3.30;89.00;;;;;;5088810;28;19928;-73
2023/12/19 12:19:34;;;;;;;;;;;3.30;89.00;;;;;;5087216;28;19932;-73
2023/12/19 12:22:15;;;;;;;;;;;3.30;89.00;;;;;;5088574;28;19959;-65
2023/12/19 12:24:53;;;;;;;;;;;3.30;89.00;;;;;;5087975;28;19924;-65
2023/12/19 12:27:27;;;;;;;;;;;3.30;88.90;;;;;;5082939;27;19924;-65
2023/12/19 12:30:00;;;;;;;;;;;3.30;89.00;;;;;;5087129;28;19925;-66
2023/12/19 12:32:33;;;;;;;;;;;3.40;88.90;;;;;;5082080;28;20346;-65
2023/12/19 12:35:21;;;;;;;;;;;3.30;88.80;;;;;;5086592;28;19930;-66
2023/12/19 12:38:00;;;;;;;;;;;3.40;88.70;;;;;;5085459;28;19924;-66
2023/12/19 12:40:35;;;;;;;;;;;3.40;88.70;;;;;;5087683;28;19924;-65
2023/12/19 12:43:27;;;;;;;;;;;3.40;88.60;;;;;;5087498;28;20022;-66
2023/12/19 12:46:04;;;;;;;;;;;3.40;88.70;;;;;;5088230;28;19925;-65
2023/12/19 12:48:38;;;;;;;;;;;3.40;88.50;;;;;;5085004;28;20337;-66
2023/12/19 12:51:12;;;;;;;;;;;3.40;88.60;;;;;;5085577;28;19932;-65
2023/12/19 12:53:45;;;;;;;;;;;3.40;88.60;;;;;;5081779;28;19924;-66
2023/12/19 12:56:20;;;;;;;;;;;3.50;88.60;;;;;;5080815;28;20375;-65
2023/12/19 12:58:58;;;;;;;;;;;3.40;88.60;;;;;;5083233;28;19928;-66
2023/12/19 13:01:31;;;;;;;;;;;3.50;88.80;;;;;;5086602;28;19964;-67
2023/12/19 13:03:58;;;;;;;;;;;3.50;88.70;;;;;;5087447;28;20371;-65
2023/12/19 13:06:32;;;;;;;;;;;3.40;88.60;;;;;;5086914;28;19931;-65
2023/12/19 13:09:09;;;;;;;;;;;3.50;88.60;;;;;;5088653;28;19974;-66
2023/12/19 13:11:44;;;;;;;;;;;3.50;88.70;;;;;;5086889;28;20291;-64
2023/12/19 13:14:17;;;;;;;;;;;3.40;88.70;;;;;;5090841;28;19967;-65
2023/12/19 13:16:50;;;;;;;;;;;3.50;88.80;;;;;;5090159;28;19935;-67
2023/12/19 13:19:23;;;;;;;;;;;3.50;88.70;;;;;;5087705;28;20332;-65
2023/12/19 13:21:57;;;;;;;;;;;3.50;88.80;;;;;;5090874;28;19928;-64
2023/12/19 13:24:32;;;;;;;;;;;3.50;88.80;;;;;;5087700;28;19931;-65
2023/12/19 13:27:07;;;;;;;;;;;3.50;88.80;;;;;;5081208;28;20357;-65
2023/12/19 13:29:40;;;;;;;;;;;3.50;88.80;;;;;;5090328;28;19967;-66
2023/12/19 13:32:13;;;;;;;;;;;3.50;88.80;;;;;;5091608;28;19927;-72
2023/12/19 13:34:46;;;;;;;;;;;3.50;88.80;;;;;;5085993;28;20375;-70
2023/12/19 13:37:19;;;;;;;;;;;3.60;88.90;;;;;;5090087;28;20327;-71
2023/12/19 13:39:52;;;;;;;;;;;3.50;88.70;;;;;;5090854;28;19951;-71
2023/12/19 13:42:27;;;;;;;;;;;3.60;88.80;;;;;;5089410;28;19954;-72
2023/12/19 13:45:00;;;;;;;;;;;3.60;88.70;;;;;;5087012;28;19959;-71
2023/12/19 13:47:33;;;;;;;;;;;3.60;88.70;;;;;;5087685;28;19928;-72
2023/12/19 13:50:07;;;;;;;;;;;3.60;88.60;;;;;;5089901;28;19932;-70
2023/12/19 13:52:42;;;;;;;;;;;3.60;88.70;;;;;;5084040;28;19956;-71
2023/12/19 13:55:16;;;;;;;;;;;3.60;88.80;;;;;;5087863;28;19936;-72
2023/12/19 13:57:50;;;;;;;;;;;3.60;88.70;;;;;;5091232;28;19924;-72
2023/12/19 14:00:23;;;;;;;;;;;3.60;88.80;;;;;;5087640;28;19928;-73
2023/12/19 14:02:56;;;;;;;;;;;3.70;88.80;;;;;;5086691;28;19932;-73
2023/12/19 14:05:29;;;;;;;;;;;3.70;88.80;;;;;;5088782;28;19944;-70
2023/12/19 14:08:03;;;;;;;;;;;3.70;88.60;;;;;;5087859;28;19954;-73
2023/12/19 14:10:35;;;;;;;;;;;3.70;88.60;;;;;;5088854;28;19928;-72
2023/12/19 14:13:10;;;;;;;;;;;3.70;88.70;;;;;;5089652;28;19934;-72
2023/12/19 14:15:44;;;;;;;;;;;3.70;88.70;;;;;;5087792;28;20383;-72
2023/12/19 14:18:40;;;;;;;;;;;3.80;88.70;;;;;;5089445;28;19928;-73
2023/12/19 14:21:13;;;;;;;;;;;3.70;88.80;;;;;;5086898;28;19928;-72
2023/12/19 14:23:48;;;;;;;;;;;3.80;88.70;;;;;;5086465;28;19929;-72
2023/12/19 14:26:21;;;;;;;;;;;3.80;88.70;;;;;;5083620;28;19928;-72
2023/12/19 14:28:57;;;;;;;;;;;3.80;88.60;;;;;;5082318;28;20043;-72
2023/12/19 14:31:32;;;;;;;;;;;3.80;88.70;;;;;;5087485;28;19940;-71
2023/12/19 14:34:06;;;;;;;;;;;3.70;88.70;;;;;;5086750;28;19932;-71
2023/12/19 14:36:43;;;;;;;;;;;3.80;88.70;;;;;;5084506;28;19935;-71
2023/12/19 14:39:16;;;;;;;;;;;3.90;88.70;;;;;;5085189;28;19931;-71
2023/12/19 14:41:49;;;;;;;;;;;3.80;88.70;;;;;;5086135;28;19973;-62
2023/12/19 14:44:24;;;;;;;;;;;3.80;88.80;;;;;;5087847;28;19932;-63
2023/12/19 14:46:58;;;;;;;;;;;3.80;88.80;;;;;;5086571;28;19934;-63
2023/12/19 14:49:31;;;;;;;;;;;3.70;88.80;;;;;;5088631;28;19932;-62
2023/12/19 14:52:05;;;;;;;;;;;3.80;88.90;;;;;;5088744;27;19924;-63
2023/12/19 14:54:37;;;;;;;;;;;3.80;88.90;;;;;;5088413;28;19932;-64
2023/12/19 14:57:10;;;;;;;;;;;3.80;88.80;;;;;;5086142;28;19939;-63
2023/12/19 14:59:45;;;;;;;;;;;3.80;88.80;;;;;;5087777;28;19932;-63
2023/12/19 15:02:18;;;;;;;;;;;3.80;88.80;;;;;;5089976;28;20044;-62
2023/12/19 15:04:51;;;;;;;;;;;3.90;88.90;;;;;;5086966;28;19950;-62
2023/12/19 15:07:18;;;;;;;;;;;3.90;89.00;;;;;;5089111;28;19928;-62
2023/12/19 15:09:51;;;;;;;;;;;3.90;89.00;;;;;;5088971;28;19928;-62
2023/12/19 15:12:24;;;;;;;;;;;3.90;89.00;;;;;;5087494;28;20018;-62
2023/12/19 15:14:59;;;;;;;;;;;3.90;89.00;;;;;;5085723;28;19928;-63
2023/12/19 15:17:32;;;;;;;;;;;3.90;89.00;;;;;;5087340;28;19967;-62
2023/12/19 15:20:08;;;;;;;;;;;3.90;89.10;;;;;;5084320;28;19924;-61
2023/12/19 15:22:42;;;;;;;;;;;3.90;89.10;;;;;;5083902;28;19947;-63
2023/12/19 15:25:14;;;;;;;;;;;4.00;89.10;;;;;;5087054;28;19928;-62
2023/12/19 15:27:54;;;;;;;;;;;3.90;89.10;;;;;;5087342;28;19924;-62
2023/12/19 15:30:29;;;;;;;;;;;3.90;89.20;;;;;;5086268;28;19974;-63
2023/12/19 15:33:04;;;;;;;;;;;3.90;89.30;;;;;;5083446;28;20014;-62
2023/12/19 15:35:38;;;;;;;;;;;4.00;89.30;;;;;;5086977;28;19935;-63
2023/12/19 15:38:12;;;;;;;;;;;4.00;89.30;;;;;;5082552;28;19924;-66
2023/12/19 15:40:45;;;;;;;;;;;4.00;89.40;;;;;;5081607;28;20394;-62